默认 日期 大小 文件数 浏览量 最新下载 xml
melone磁力链接相关资源由用户搜索指令自动获取,结果来源于网络,本站不存储任何资料,亦不承担任何责任,请于24小时内删除,搜索到1975个磁力,用时2ms。
    {"RARBG.com.txt": 34, "btaw.16.12.01.mea.melone.under.the.table.deal.mp4": 2869562099, "btaw.16.12.01.mea.melone.under.the.table.deal.nfo": 5212}
创建时间: 2018-11-08 21:25:22 大小:2.67 GB 文件数量:3 热度:113 最近下载:2025-09-05 23:10:03
    {"RARBG.com.txt": 34, "takevan.16.10.14.wendy.moon.and.mea.melone.anniversary.threesome.mp4": 1760572582, "takevan.16.10.14.wendy.moon.and.mea.melone.anniversary.threesome.nfo": 5215}
创建时间: 2018-11-08 21:32:36 大小:1.64 GB 文件数量:3 热度:43 最近下载:2025-09-22 01:37:01
    {"HandsOnHardcore - Mea Melone (The Studs And The Babe - Hot Czech Chick Gets Stuffed By Three Rods) 24-November-2015.mp4": 440836042}
创建时间: 2018-11-09 00:57:30 大小:420.41 MB 文件数量:1 热度:30 最近下载:2025-07-30 18:25:01
    {"RARBG.txt": 30, "houseoftaboo.17.06.15.mea.melone.and.vinna.reed.mp4": 1527146566, "houseoftaboo.17.06.15.mea.melone.and.vinna.reed.nfo": 5204}
创建时间: 2018-11-09 01:36:49 大小:1.42 GB 文件数量:3 热度:40 最近下载:2025-06-05 23:10:02
    {"LegalPorno - Mea Melone, Chloe Lacourt (Mea Melone, Chloe Lacourt maximum anal stretching, gorgeous slut DAPed SZ1082) 27-October-2015.mp4": 1054447577}
创建时间: 2018-11-09 17:03:43 大小:1005.6 MB 文件数量:1 热度:44 最近下载:2025-09-14 15:42:02
    {"S05E09 - Kennen sie Snob.mkv": 791471125, "S05E08 - Vorsicht Raubkatzen.mkv": 787577355, "S05E10 - Duplikate gefällig.mkv": 790611148, "S05E06 - Der geflügelte Rächer.mkv": 791209480, "S05E07 - Der Geist des Duke von Benedict.mkv": 790661659}
创建时间: 2018-11-10 01:38:49 大小:3.68 GB 文件数量:5 热度:10 最近下载:2025-03-31 09:12:01
    {"RARBG.com.txt": 34, "map.15.12.30.mea.melone.blue.heaven.mp4": 3141613936, "map.15.12.30.mea.melone.blue.heaven.nfo": 5205}
创建时间: 2018-11-10 04:09:20 大小:2.93 GB 文件数量:3 热度:34 最近下载:2025-02-20 16:19:02
    {"wcx.13.10.18.mea.melone.mov": 2982962343}
创建时间: 2018-11-10 05:53:49 大小:2.78 GB 文件数量:1 热度:20 最近下载:2024-10-09 20:20:01
    {"Torrent Downloaded from PornLeech.com.nfo": 37, "Torrent Downloaded from ExtraTorrent.cc.nfo": 39, "wendy_moon_and_mea_melone_barefoot_splendor_9902d1_360_1200.mp4": 300159648}
创建时间: 2018-11-10 09:28:20 大小:286.25 MB 文件数量:3 热度:25 最近下载:2025-09-17 08:51:12
    {"S04E03 - Die Roboter.avi": 466034688, "S04E06 - Club der Hirne.avi": 424611840, "S04E02 - Die Totengräber.avi": 471590912, "S04E01 - Stadt ohne Rückkehr.avi": 480350208, "S04E04 - Ausverkauf des Todes.avi": 443195392, "S04E05 - Das schottische Schloß.avi ...
创建时间: 2018-11-10 14:29:07 大小:2.54 GB 文件数量:6 热度:9 最近下载:2025-08-12 21:04:02
    {"SloppySwapping.16.03.04.Tiffany.Doll.Meg.Magic.Coco.De.Mal.Dorina.Golden.Bella.Beretta.And.Nomi.Melone.XXX.1080p.MKV-KTR.mkv": 1631412935}
创建时间: 2018-11-10 15:03:50 大小:1.52 GB 文件数量:1 热度:41 最近下载:2025-08-06 02:47:04
    {"LegalPorno - Mea Melone anal fucking & gapes gg521 (exclusive) XXX NEW Released 22-05-2016.mp4": 693730006}
创建时间: 2018-11-10 15:24:33 大小:661.59 MB 文件数量:1 热度:23 最近下载:2025-01-17 19:45:02
    {"[OnlyBlowJob] Mea Melone (29.01.2017) rq.mp4": 231527176}
创建时间: 2018-11-11 16:07:06 大小:220.8 MB 文件数量:1 热度:15 最近下载:2025-10-16 16:41:03
    {"RARBG.com.txt": 34, "fakeshooting.e16.mea.melone.mp4": 2048780428, "fakeshooting.e16.mea.melone.nfo": 5180}
创建时间: 2018-11-11 16:24:25 大小:1.91 GB 文件数量:3 热度:19 最近下载:2025-04-03 09:39:04
    {"RARBG.com.txt": 34, "btas.15.09.17.mea.melone.the.mathletes.part.two.mp4": 2586133107, "btas.15.09.17.mea.melone.the.mathletes.part.two.nfo": 5218}
创建时间: 2018-11-11 22:11:56 大小:2.41 GB 文件数量:3 热度:55 最近下载:2025-09-05 23:09:01
    {"RARBG.txt": 30, "MeloneChallenge.17.11.14.Wendy.Melone.Double.Cumming.Tongue.Love.mp4": 1842417862, "melonechallenge.17.11.14.wendy.melone.double.cumming.tongue.love.nfo": 651}
创建时间: 2018-11-12 09:10:28 大小:1.72 GB 文件数量:3 热度:22 最近下载:2025-09-17 08:52:11
    {"RARBG.com.txt": 34, "hotb.14.11.01.mea.melone.mp4": 1811883488, "hotb.14.11.01.mea.melone.nfo": 6973}
创建时间: 2018-11-12 11:20:59 大小:1.69 GB 文件数量:3 热度:27 最近下载:2025-09-29 23:49:02
    {"RARBG.com.txt": 34, "1byd.16.01.25.mea.melone.mp4": 1169727491, "1byd.16.01.25.mea.melone.nfo": 5179}
创建时间: 2018-11-12 14:32:52 大小:1.09 GB 文件数量:3 热度:26 最近下载:2025-09-04 09:34:03
    ... .Moon.Latex.Lucy.And.Mea.Melone.XXX.1080p.MP4-KTR": {"Sample ... .moon.latex.lucy.and.mea.melone-sample.mp4": 68249698}, "hotb.16 ... .moon.latex.lucy.and.mea.melone.jpg": 1968500, "hotb.16.01 ... .moon.latex.lucy.and.mea.melone.mp4": 2046105621, "hotb.16.01 ...
创建时间: 2018-11-13 02:11:51 大小:1.97 GB 文件数量:4 热度:51 最近下载:2025-09-17 08:52:03
    {"RARBG.com.txt": 34, "btaw.16.12.01.mea.melone.under.the.table.deal.mp4": 2869562099, "btaw.16.12.01.mea.melone.under.the.table.deal.nfo": 5212}
创建时间: 2018-11-13 06:46:14 大小:2.67 GB 文件数量:3 热度:36 最近下载:2025-08-26 11:40:02